Time;durP1;ratioP1;P1;durP2;ratioP2;P2;SDS_P1;SDS_P2;PMS_P1;PMS_P2;Temp;Humidity;BMP_temperature;BMP_pressure;BME280_temperature;BME280_humidity;BME280_pressure;Samples;Min_cycle;Max_cycle;Signal;HPM_P1;HPM_P2
2021/09/10 00:02:01;;;;;;;69.57;44.08;;;15.00;84.50;;;;;;5045411;28;20028;-80
2021/09/10 00:04:27;;;;;;;67.78;45.08;;;15.00;84.50;;;;;;5052638;28;20036;-79
2021/09/10 00:06:52;;;;;;;63.10;43.97;;;15.00;84.70;;;;;;5034363;28;20429;-79
2021/09/10 00:09:18;;;;;;;69.38;44.90;;;15.00;85.00;;;;;;5034035;28;20075;-79
2021/09/10 00:11:44;;;;;;;61.53;41.78;;;14.90;85.00;;;;;;5034928;28;20108;-78
2021/09/10 00:14:10;;;;;;;61.47;40.55;;;14.90;85.10;;;;;;5043936;28;20036;-79
2021/09/10 00:16:36;;;;;;;63.72;43.88;;;14.90;85.10;;;;;;5045718;28;20521;-81
2021/09/10 00:19:02;;;;;;;63.53;39.58;;;14.90;84.80;;;;;;5051249;28;20045;-77
2021/09/10 00:21:28;;;;;;;62.05;40.97;;;14.80;84.70;;;;;;5042334;28;20036;-79
2021/09/10 00:23:53;;;;;;;57.20;39.53;;;14.80;84.70;;;;;;5053744;28;20532;-79
2021/09/10 00:26:19;;;;;;;64.85;40.78;;;14.70;84.60;;;;;;5040942;28;20080;-80
2021/09/10 00:28:45;;;;;;;62.15;41.70;;;14.70;84.70;;;;;;5043600;28;20033;-79
2021/09/10 00:31:11;;;;;;;64.78;42.38;;;14.60;84.80;;;;;;5036569;28;20025;-79
2021/09/10 00:33:36;;;;;;;61.97;42.70;;;14.60;85.20;;;;;;5037440;28;20033;-81
2021/09/10 00:36:03;;;;;;;64.72;42.60;;;14.50;85.60;;;;;;5050298;28;20494;-79
2021/09/10 00:38:30;;;;;;;58.15;41.22;;;14.50;86.10;;;;;;5039665;28;20033;-79
2021/09/10 00:40:57;;;;;;;59.40;40.88;;;14.50;86.50;;;;;;5033768;28;20099;-78
2021/09/10 00:43:23;;;;;;;60.75;39.50;;;14.50;86.70;;;;;;5034411;28;20032;-80
2021/09/10 00:45:48;;;;;;;60.25;40.42;;;14.50;86.80;;;;;;5038416;28;20119;-82
2021/09/10 00:48:17;;;;;;;57.03;40.22;;;14.50;86.90;;;;;;5053546;28;20033;-80
2021/09/10 00:50:43;;;;;;;62.55;42.05;;;14.60;86.90;;;;;;5040560;28;20038;-78
2021/09/10 00:53:09;;;;;;;60.50;41.75;;;14.60;86.70;;;;;;5042544;28;20026;-79
2021/09/10 00:55:36;;;;;;;61.22;42.95;;;14.50;86.70;;;;;;5047209;28;20514;-80
2021/09/10 00:58:02;;;;;;;63.10;42.80;;;14.50;86.80;;;;;;5034165;28;20025;-79
2021/09/10 01:00:28;;;;;;;63.42;42.95;;;14.40;86.90;;;;;;5033161;28;20044;-78
2021/09/10 01:02:55;;;;;;;64.68;42.03;;;14.30;87.20;;;;;;5033363;28;20026;-79
2021/09/10 01:05:21;;;;;;;66.65;42.00;;;14.30;87.50;;;;;;5046840;28;20391;-78
2021/09/10 01:07:48;;;;;;;57.85;39.22;;;14.30;87.60;;;;;;5035018;28;20037;-79
2021/09/10 01:10:15;;;;;;;56.58;38.03;;;14.30;87.70;;;;;;5033366;28;20399;-79
2021/09/10 01:12:42;;;;;;;56.38;39.80;;;14.30;87.70;;;;;;5033539;28;20029;-78
2021/09/10 01:15:09;;;;;;;60.00;40.28;;;14.30;87.50;;;;;;5051707;28;20040;-79
2021/09/10 01:17:38;;;;;;;61.75;41.17;;;14.30;86.80;;;;;;5052060;28;20036;-78
2021/09/10 01:20:06;;;;;;;60.70;41.45;;;14.20;86.70;;;;;;5044592;28;20041;-78
2021/09/10 01:22:32;;;;;;;66.32;41.83;;;14.10;86.90;;;;;;5052917;28;20021;-78
2021/09/10 01:25:13;;;;;;;66.25;41.65;;;14.10;87.40;;;;;;5042282;28;20570;-77
2021/09/10 01:27:51;;;;;;;60.30;39.53;;;14.10;87.80;;;;;;5045887;28;20143;-79
2021/09/10 01:30:19;;;;;;;59.88;40.42;;;14.10;88.10;;;;;;5054017;28;20032;-78
2021/09/10 01:32:45;;;;;;;56.65;40.28;;;14.10;88.30;;;;;;5052055;28;20025;-79
2021/09/10 01:35:12;;;;;;;59.05;39.58;;;14.10;88.20;;;;;;5046516;28;20030;-80
2021/09/10 01:37:38;;;;;;;67.38;41.78;;;14.10;88.10;;;;;;5038529;28;20022;-78
2021/09/10 01:40:06;;;;;;;64.30;43.08;;;14.10;88.10;;;;;;5047020;28;20061;-79
2021/09/10 01:42:32;;;;;;;71.97;43.13;;;14.00;88.10;;;;;;5044607;28;20430;-79
2021/09/10 01:44:57;;;;;;;62.03;41.88;;;14.00;88.20;;;;;;5037833;28;20029;-77
2021/09/10 01:47:23;;;;;;;60.42;41.97;;;13.90;88.30;;;;;;5046065;28;20029;-77
2021/09/10 01:49:49;;;;;;;60.28;40.53;;;13.80;88.60;;;;;;5034159;28;20060;-78
2021/09/10 01:52:15;;;;;;;57.90;39.03;;;13.80;88.80;;;;;;5032434;28;20026;-81
2021/09/10 01:54:41;;;;;;;55.70;38.90;;;13.80;89.00;;;;;;5033544;28;20049;-77
2021/09/10 01:57:07;;;;;;;60.90;40.03;;;13.90;89.00;;;;;;5032397;28;20049;-77
2021/09/10 01:59:33;;;;;;;59.97;39.35;;;13.80;88.70;;;;;;5032559;28;20092;-78
2021/09/10 02:01:58;;;;;;;58.58;39.88;;;13.80;88.90;;;;;;5033526;28;20033;-77
2021/09/10 02:04:25;;;;;;;61.33;38.42;;;13.80;88.80;;;;;;5032385;28;20472;-77
2021/09/10 02:06:50;;;;;;;58.95;39.85;;;13.80;88.80;;;;;;5039949;28;20418;-77
2021/09/10 02:09:16;;;;;;;61.50;39.75;;;13.80;88.70;;;;;;5032282;28;20029;-76
2021/09/10 02:11:43;;;;;;;58.78;38.53;;;13.90;88.80;;;;;;5048138;28;20028;-84
2021/09/10 02:14:09;;;;;;;64.97;41.13;;;13.80;88.90;;;;;;5052113;28;20075;-75
2021/09/10 02:16:35;;;;;;;64.80;42.42;;;13.80;88.90;;;;;;5046226;28;20384;-80
2021/09/10 02:19:01;;;;;;;62.20;40.95;;;13.70;88.90;;;;;;5047904;28;20047;-80
2021/09/10 02:21:27;;;;;;;62.90;41.33;;;13.70;89.10;;;;;;5046671;28;20029;-79
2021/09/10 02:23:52;;;;;;;63.15;41.33;;;13.60;89.10;;;;;;5043935;28;20033;-80
2021/09/10 02:26:19;;;;;;;66.72;41.60;;;13.60;89.40;;;;;;5045257;28;20395;-80
2021/09/10 02:28:45;;;;;;;69.47;44.42;;;13.60;89.70;;;;;;5054262;28;20120;-80
2021/09/10 02:31:10;;;;;;;67.88;44.33;;;13.60;89.60;;;;;;5038322;28;20033;-80
2021/09/10 02:33:36;;;;;;;81.88;54.30;;;13.50;89.40;;;;;;5043472;28;20460;-81
2021/09/10 02:36:02;;;;;;;90.90;56.72;;;13.40;89.40;;;;;;5035875;28;20029;-79
2021/09/10 02:38:28;;;;;;;111.05;72.82;;;13.30;89.50;;;;;;5035552;28;20120;-82
2021/09/10 02:40:54;;;;;;;120.03;79.35;;;13.20;89.40;;;;;;5036938;28;20368;-81
2021/09/10 02:43:19;;;;;;;110.22;70.32;;;13.20;89.40;;;;;;5036083;28;20029;-80
2021/09/10 02:45:45;;;;;;;131.63;83.72;;;13.10;88.90;;;;;;5038499;28;20029;-80
2021/09/10 02:48:11;;;;;;;182.52;106.50;;;13.10;88.90;;;;;;5058012;28;20029;-80
2021/09/10 02:50:37;;;;;;;210.73;122.90;;;13.00;89.20;;;;;;5058124;28;20032;-79
2021/09/10 02:53:03;;;;;;;153.95;94.15;;;13.00;89.70;;;;;;5049423;28;20036;-79
2021/09/10 02:55:29;;;;;;;147.52;90.28;;;13.00;89.50;;;;;;5055432;28;20044;-79
2021/09/10 02:57:55;;;;;;;167.10;99.57;;;13.00;89.50;;;;;;5059832;28;20055;-81
2021/09/10 03:00:21;;;;;;;147.18;89.13;;;13.00;90.20;;;;;;5062219;28;20487;-79
2021/09/10 03:02:46;;;;;;;143.07;85.20;;;12.90;90.00;;;;;;5052516;28;20030;-79
2021/09/10 03:05:13;;;;;;;132.95;77.40;;;12.90;90.00;;;;;;5045218;28;20053;-82
2021/09/10 03:07:39;;;;;;;116.43;68.00;;;12.90;90.00;;;;;;5036327;28;20029;-79
2021/09/10 03:10:06;;;;;;;124.25;73.18;;;12.90;90.00;;;;;;5036939;28;20021;-79
2021/09/10 03:12:33;;;;;;;100.88;61.50;;;12.90;90.00;;;;;;5047467;28;20087;-80
2021/09/10 03:14:59;;;;;;;84.75;52.17;;;12.80;90.00;;;;;;5046779;28;20471;-80
2021/09/10 03:17:25;;;;;;;80.72;49.88;;;12.80;89.90;;;;;;5038232;28;20025;-79
2021/09/10 03:19:51;;;;;;;89.30;55.92;;;12.80;89.20;;;;;;5036290;28;20071;-80
2021/09/10 03:22:16;;;;;;;92.80;59.90;;;12.70;89.70;;;;;;5035645;28;20120;-79
2021/09/10 03:24:42;;;;;;;87.85;54.47;;;12.70;90.10;;;;;;5040198;28;20107;-80
2021/09/10 03:27:08;;;;;;;85.28;52.28;;;12.60;90.30;;;;;;5059302;28;20033;-80
2021/09/10 03:29:34;;;;;;;77.55;47.80;;;12.60;90.30;;;;;;5052946;28;20025;-82
2021/09/10 03:31:59;;;;;;;70.47;46.88;;;12.60;90.20;;;;;;5037929;28;20099;-80
2021/09/10 03:34:28;;;;;;;72.10;46.10;;;12.70;90.50;;;;;;5036544;28;20033;-80
2021/09/10 03:36:54;;;;;;;63.45;40.47;;;12.80;90.60;;;;;;5034615;28;20026;-80
2021/09/10 03:39:20;;;;;;;55.05;36.92;;;12.90;90.70;;;;;;5034831;28;20198;-80
2021/09/10 03:41:46;;;;;;;50.25;33.50;;;13.10;90.70;;;;;;5035699;28;20052;-83
2021/09/10 03:44:12;;;;;;;53.38;35.30;;;13.30;90.40;;;;;;5053211;28;20388;-81
2021/09/10 03:46:37;;;;;;;53.90;34.10;;;13.60;90.00;;;;;;5053892;28;20029;-81
2021/09/10 03:49:03;;;;;;;48.58;32.63;;;13.90;89.00;;;;;;5045525;28;20058;-81
2021/09/10 03:51:29;;;;;;;50.63;32.95;;;14.10;87.70;;;;;;5036780;28;20025;-80
2021/09/10 03:53:55;;;;;;;46.55;31.23;;;14.40;86.40;;;;;;5044986;28;20025;-81
2021/09/10 03:56:21;;;;;;;51.83;32.35;;;14.60;85.20;;;;;;5044703;28;20033;-81
2021/09/10 03:58:47;;;;;;;47.88;32.38;;;14.80;84.30;;;;;;5034236;28;20041;-79
2021/09/10 04:01:13;;;;;;;47.90;31.83;;;15.10;83.20;;;;;;5043429;28;20021;-80
2021/09/10 04:03:39;;;;;;;50.78;32.05;;;15.40;82.10;;;;;;5053539;28;20033;-80
2021/09/10 04:06:05;;;;;;;44.38;31.88;;;15.70;80.90;;;;;;5036208;28;20116;-81
2021/09/10 04:08:30;;;;;;;49.10;31.98;;;16.00;79.70;;;;;;5054081;28;20029;-81
2021/09/10 04:10:56;;;;;;;44.40;30.63;;;16.30;78.50;;;;;;5054082;28;20025;-79
2021/09/10 04:13:22;;;;;;;45.33;29.48;;;16.60;77.40;;;;;;5050469;28;20097;-81
2021/09/10 04:15:47;;;;;;;43.72;27.92;;;16.90;76.20;;;;;;5052296;28;20082;-68
2021/09/10 04:18:13;;;;;;;43.25;28.77;;;17.20;75.00;;;;;;5052582;28;20025;-70
2021/09/10 04:20:39;;;;;;;43.88;28.30;;;17.60;74.00;;;;;;5053658;28;20171;-70
2021/09/10 04:23:05;;;;;;;43.60;27.42;;;17.90;72.90;;;;;;5043376;28;20380;-70
2021/09/10 04:25:30;;;;;;;44.28;28.08;;;18.20;71.60;;;;;;5051209;28;20467;-70
2021/09/10 04:27:56;;;;;;;43.05;26.80;;;18.60;70.40;;;;;;5051579;28;20037;-71
2021/09/10 04:30:22;;;;;;;47.03;28.08;;;18.80;69.30;;;;;;5052200;28;20051;-70
2021/09/10 04:32:47;;;;;;;38.38;27.15;;;19.10;68.30;;;;;;5047339;28;20040;-70
2021/09/10 04:35:14;;;;;;;43.20;27.10;;;19.50;67.40;;;;;;5034801;28;20075;-70
2021/09/10 04:37:40;;;;;;;42.42;26.15;;;19.80;66.40;;;;;;5034842;28;20025;-70
2021/09/10 04:40:08;;;;;;;38.17;27.10;;;20.10;65.30;;;;;;5034574;28;20116;-70
2021/09/10 04:42:34;;;;;;;41.28;26.25;;;20.40;64.40;;;;;;5042618;28;20029;-69
2021/09/10 04:45:00;;;;;;;36.20;25.85;;;20.70;63.60;;;;;;5032782;28;20036;-70
2021/09/10 04:47:26;;;;;;;38.08;26.35;;;20.90;63.00;;;;;;5047712;28;20025;-70
2021/09/10 04:49:52;;;;;;;46.38;24.92;;;21.10;62.20;;;;;;5042971;28;20025;-70
2021/09/10 04:52:18;;;;;;;36.08;24.67;;;21.30;61.70;;;;;;5033174;28;20480;-70
2021/09/10 04:54:44;;;;;;;37.88;25.52;;;21.60;61.10;;;;;;5034646;28;20060;-70
2021/09/10 04:57:10;;;;;;;36.83;24.33;;;21.80;60.40;;;;;;5041595;28;20021;-70
2021/09/10 04:59:35;;;;;;;36.50;24.33;;;22.10;60.20;;;;;;5052376;28;20037;-71
2021/09/10 05:02:01;;;;;;;42.78;25.13;;;22.30;59.40;;;;;;5054392;28;20028;-72
2021/09/10 05:04:27;;;;;;;34.30;22.20;;;22.70;59.60;;;;;;5039504;28;20052;-70
2021/09/10 05:06:53;;;;;;;36.92;22.55;;;23.10;58.10;;;;;;5036792;28;20074;-71
2021/09/10 05:09:19;;;;;;;30.90;21.27;;;23.40;57.80;;;;;;5035005;28;20065;-71
2021/09/10 05:11:46;;;;;;;32.25;21.88;;;23.70;56.40;;;;;;5039303;28;20040;-71
2021/09/10 05:14:13;;;;;;;31.25;22.25;;;24.10;55.50;;;;;;5034266;28;20047;-71
2021/09/10 05:16:38;;;;;;;32.53;22.13;;;24.40;54.80;;;;;;5034605;28;20035;-71
2021/09/10 05:19:04;;;;;;;33.78;22.35;;;24.70;54.00;;;;;;5036958;28;20051;-71
2021/09/10 05:21:30;;;;;;;42.17;23.63;;;25.00;53.30;;;;;;5053790;28;20025;-71
2021/09/10 05:23:56;;;;;;;40.83;23.17;;;25.10;52.90;;;;;;5042200;28;20375;-71
2021/09/10 05:26:22;;;;;;;40.38;23.55;;;25.10;52.80;;;;;;5037769;28;20120;-71
2021/09/10 05:28:48;;;;;;;35.55;23.95;;;25.30;52.80;;;;;;5048830;28;20132;-71
2021/09/10 05:31:14;;;;;;;39.80;24.27;;;25.50;52.60;;;;;;5042162;28;20029;-71
2021/09/10 05:33:40;;;;;;;42.80;24.65;;;25.70;52.40;;;;;;5067492;28;20058;-72
2021/09/10 05:36:05;;;;;;;42.50;24.05;;;26.00;52.20;;;;;;5060038;28;20028;-73
2021/09/10 05:38:31;;;;;;;44.55;24.85;;;26.20;51.60;;;;;;5044764;28;20033;-78
2021/09/10 05:40:57;;;;;;;42.08;24.52;;;26.30;51.20;;;;;;5040044;28;20529;-81
2021/09/10 05:43:23;;;;;;;44.90;24.80;;;26.50;51.20;;;;;;5047726;28;20024;-80
2021/09/10 05:45:48;;;;;;;41.15;24.48;;;26.80;51.00;;;;;;5034295;28;20029;-81
2021/09/10 05:48:18;;;;;;;43.75;24.92;;;27.10;50.80;;;;;;5041331;28;20087;-82
2021/09/10 05:50:46;;;;;;;45.10;25.27;;;27.40;50.10;;;;;;5045303;28;20025;-80
2021/09/10 05:53:11;;;;;;;44.80;24.25;;;27.70;49.50;;;;;;5032809;28;20025;-76
2021/09/10 05:55:37;;;;;;;38.95;22.52;;;28.00;49.10;;;;;;5042076;28;20104;-77
2021/09/10 05:58:03;;;;;;;43.60;23.30;;;28.20;48.40;;;;;;5034916;28;20037;-79
2021/09/10 06:00:29;;;;;;;35.92;21.95;;;28.40;48.20;;;;;;5056116;28;20040;-79
2021/09/10 06:02:54;;;;;;;38.03;22.77;;;28.60;48.00;;;;;;5073010;28;20025;-74
2021/09/10 06:05:20;;;;;;;36.38;23.05;;;28.90;47.60;;;;;;5074017;28;20422;-73
2021/09/10 06:07:46;;;;;;;34.10;22.27;;;29.20;47.20;;;;;;5064413;28;20025;-76
2021/09/10 06:10:13;;;;;;;31.92;22.35;;;29.30;46.70;;;;;;5046715;28;20037;-73
2021/09/10 06:12:41;;;;;;;37.20;20.40;;;29.50;46.40;;;;;;5048067;28;20108;-76
2021/09/10 06:15:07;;;;;;;32.55;21.27;;;29.80;45.90;;;;;;5040445;28;20028;-74
2021/09/10 06:17:33;;;;;;;35.35;20.70;;;30.00;45.10;;;;;;5050495;28;20025;-75
2021/09/10 06:19:59;;;;;;;29.60;20.60;;;30.10;44.90;;;;;;5041915;28;20080;-75
2021/09/10 06:22:27;;;;;;;30.17;19.98;;;30.40;44.60;;;;;;5040200;28;20490;-72
2021/09/10 06:24:53;;;;;;;21.80;15.48;;;30.50;44.40;;;;;;5060759;28;20038;-78
2021/09/10 06:27:19;;;;;;;20.73;13.95;;;30.60;43.40;;;;;;5056452;28;20029;-73
2021/09/10 06:29:44;;;;;;;20.30;13.00;;;30.60;42.90;;;;;;5045777;28;20029;-77
2021/09/10 06:32:10;;;;;;;22.88;13.82;;;30.80;42.60;;;;;;5043340;28;20112;-78
2021/09/10 06:34:39;;;;;;;19.67;14.07;;;31.00;42.20;;;;;;5039978;28;20027;-77
2021/09/10 06:37:04;;;;;;;26.75;14.35;;;31.00;41.60;;;;;;5051395;28;20032;-78
2021/09/10 06:39:30;;;;;;;22.13;13.50;;;31.10;41.60;;;;;;5051834;28;20116;-78
2021/09/10 06:41:58;;;;;;;18.02;12.27;;;31.30;41.30;;;;;;5033648;28;20026;-77
2021/09/10 06:44:24;;;;;;;18.77;12.48;;;31.50;41.40;;;;;;5032887;28;20477;-78
2021/09/10 06:46:50;;;;;;;18.48;11.55;;;31.80;41.40;;;;;;5032498;28;20056;-78
2021/09/10 06:49:15;;;;;;;16.17;12.10;;;32.10;40.90;;;;;;5032443;28;20040;-76
2021/09/10 06:51:41;;;;;;;16.25;11.93;;;32.20;40.20;;;;;;5030947;28;20065;-77
2021/09/10 06:54:07;;;;;;;16.98;12.18;;;32.40;40.10;;;;;;5032734;28;20021;-77
2021/09/10 06:56:33;;;;;;;19.83;12.63;;;32.70;40.30;;;;;;5031047;28;20036;-78
2021/09/10 06:58:58;;;;;;;16.95;11.60;;;32.80;40.10;;;;;;5048316;28;20037;-74
2021/09/10 07:01:25;;;;;;;17.70;12.45;;;32.90;39.50;;;;;;5033136;28;20048;-75
2021/09/10 07:03:51;;;;;;;17.67;11.43;;;32.80;40.00;;;;;;5048316;28;20032;-78
2021/09/10 07:06:16;;;;;;;23.35;12.45;;;33.00;39.70;;;;;;5048380;28;20061;-78
2021/09/10 07:08:42;;;;;;;18.30;12.07;;;33.20;39.30;;;;;;5032994;28;20564;-77
2021/09/10 07:11:08;;;;;;;16.88;12.30;;;33.20;39.00;;;;;;5036087;28;20026;-77
2021/09/10 07:13:33;;;;;;;20.27;11.70;;;33.30;38.70;;;;;;5051659;28;20391;-75
2021/09/10 07:15:59;;;;;;;21.95;12.05;;;33.40;38.40;;;;;;5053657;28;20459;-77
2021/09/10 07:18:25;;;;;;;33.05;14.80;;;33.60;38.60;;;;;;5055189;28;20463;-77
2021/09/10 07:20:51;;;;;;;20.45;12.15;;;33.70;38.50;;;;;;5056121;28;20120;-77
2021/09/10 07:23:16;;;;;;;16.60;10.55;;;33.80;38.30;;;;;;5054849;28;20082;-75
2021/09/10 07:25:42;;;;;;;18.33;11.82;;;34.00;37.90;;;;;;5053812;28;20029;-77
2021/09/10 07:28:08;;;;;;;20.70;12.00;;;34.20;38.00;;;;;;5056215;28;20033;-77
2021/09/10 07:30:34;;;;;;;36.15;15.25;;;34.10;37.60;;;;;;5054927;28;20467;-78
2021/09/10 07:33:00;;;;;;;71.35;19.90;;;34.10;38.00;;;;;;5055908;28;20028;-78
2021/09/10 07:35:26;;;;;;;50.65;15.98;;;34.20;38.20;;;;;;5055887;28;20036;-78
2021/09/10 07:37:52;;;;;;;25.00;12.63;;;34.50;38.00;;;;;;5055811;28;20029;-78
2021/09/10 07:40:18;;;;;;;20.63;12.85;;;34.60;37.90;;;;;;5049007;28;20045;-77
2021/09/10 07:42:45;;;;;;;21.60;12.40;;;34.70;38.00;;;;;;5034669;28;20435;-77
2021/09/10 07:45:11;;;;;;;24.80;11.93;;;34.90;38.30;;;;;;5035018;28;20468;-77
2021/09/10 07:47:38;;;;;;;23.63;12.57;;;34.90;38.00;;;;;;5036125;28;20148;-75
2021/09/10 07:50:04;;;;;;;19.55;12.63;;;35.10;38.10;;;;;;5035250;28;20112;-76
2021/09/10 07:52:30;;;;;;;21.25;12.73;;;35.30;38.30;;;;;;5050796;28;20036;-76
2021/09/10 07:54:56;;;;;;;20.77;12.50;;;35.40;37.90;;;;;;5050952;28;20025;-76
2021/09/10 07:57:22;;;;;;;23.95;12.63;;;35.30;38.20;;;;;;5035490;28;20025;-76
2021/09/10 07:59:51;;;;;;;24.63;13.48;;;35.40;38.40;;;;;;5035698;28;20033;-76
2021/09/10 08:02:16;;;;;;;23.77;12.90;;;35.50;37.90;;;;;;5035877;28;20494;-77
2021/09/10 08:04:42;;;;;;;28.08;13.93;;;35.60;38.40;;;;;;5050853;28;20056;-76
2021/09/10 08:07:09;;;;;;;25.55;15.15;;;35.70;38.20;;;;;;5051068;28;20038;-77
2021/09/10 08:09:34;;;;;;;21.65;13.07;;;35.70;38.10;;;;;;5037426;28;20053;-78
2021/09/10 08:12:00;;;;;;;21.10;12.93;;;35.70;37.90;;;;;;5058391;28;20025;-75
2021/09/10 08:14:25;;;;;;;23.65;13.80;;;35.70;38.30;;;;;;5055083;28;20025;-77
2021/09/10 08:16:51;;;;;;;25.88;13.02;;;35.80;38.30;;;;;;5035698;28;20384;-74
2021/09/10 08:19:17;;;;;;;20.23;12.13;;;35.80;38.20;;;;;;5035491;28;20052;-75
2021/09/10 08:21:43;;;;;;;21.17;12.52;;;35.80;37.90;;;;;;5034195;28;20068;-73
2021/09/10 08:24:09;;;;;;;20.88;12.80;;;35.90;37.70;;;;;;5033622;28;20033;-73
2021/09/10 08:26:35;;;;;;;20.58;12.10;;;35.90;37.90;;;;;;5034935;28;20376;-72
2021/09/10 08:29:01;;;;;;;19.23;11.15;;;36.00;37.90;;;;;;5033791;28;20033;-76
2021/09/10 08:31:26;;;;;;;20.08;12.45;;;36.00;38.00;;;;;;5035086;28;20024;-76
2021/09/10 08:33:52;;;;;;;21.65;13.27;;;36.00;37.70;;;;;;5033795;28;20112;-77
2021/09/10 08:36:18;;;;;;;19.00;12.48;;;36.00;37.40;;;;;;5034872;28;20040;-74
2021/09/10 08:38:44;;;;;;;19.40;11.60;;;36.00;37.70;;;;;;5034509;28;20353;-74
2021/09/10 08:41:13;;;;;;;18.52;11.65;;;36.00;37.70;;;;;;5034873;28;20036;-74
2021/09/10 08:43:46;;;;;;;25.55;11.65;;;35.90;37.40;;;;;;5033950;28;20490;-73
2021/09/10 08:46:11;;;;;;;21.05;11.57;;;35.70;37.40;;;;;;5034261;28;20029;-76
2021/09/10 08:48:37;;;;;;;21.90;11.73;;;35.80;37.10;;;;;;5033816;28;20044;-75
2021/09/10 08:51:03;;;;;;;25.40;11.52;;;35.70;37.30;;;;;;5034740;28;20104;-73
2021/09/10 08:53:28;;;;;;;23.95;11.93;;;35.70;37.50;;;;;;5034456;28;20468;-74
2021/09/10 08:55:54;;;;;;;19.58;10.38;;;35.70;38.10;;;;;;5034386;28;20053;-77
2021/09/10 08:58:20;;;;;;;27.73;11.57;;;35.70;37.20;;;;;;5034407;28;20080;-76
2021/09/10 09:00:46;;;;;;;18.58;9.57;;;35.80;37.50;;;;;;5034467;28;20033;-74
2021/09/10 09:03:12;;;;;;;390.98;78.28;;;35.90;37.10;;;;;;5034520;28;20026;-76
2021/09/10 09:05:38;;;;;;;23.60;12.18;;;36.00;38.30;;;;;;5033215;28;20053;-77
2021/09/10 09:08:17;;;;;;;31.40;12.20;;;36.00;37.70;;;;;;5032785;28;20029;-76
2021/09/10 09:11:07;;;;;;;28.65;10.43;;;36.00;37.50;;;;;;5033577;28;20033;-76
2021/09/10 09:13:36;;;;;;;18.05;9.45;;;36.20;37.30;;;;;;5033309;28;20376;-75
2021/09/10 09:16:15;;;;;;;14.75;9.55;;;36.30;36.50;;;;;;5034447;28;20029;-77
2021/09/10 09:18:43;;;;;;;17.52;9.48;;;36.20;35.80;;;;;;5033399;28;20034;-74
2021/09/10 09:21:09;;;;;;;33.30;10.32;;;36.30;35.90;;;;;;5034009;28;20436;-74
2021/09/10 09:23:35;;;;;;;19.27;9.45;;;36.20;35.70;;;;;;5033871;28;20032;-77
2021/09/10 09:26:01;;;;;;;14.02;7.80;;;36.30;35.70;;;;;;5052622;28;20025;-74
2021/09/10 09:28:31;;;;;;;16.25;9.45;;;36.50;35.30;;;;;;5053883;28;20024;-74
2021/09/10 09:31:02;;;;;;;9.50;6.28;;;36.50;35.10;;;;;;5052311;28;20060;-73
2021/09/10 09:33:28;;;;;;;16.55;8.27;;;36.40;34.40;;;;;;5054020;28;20029;-74
2021/09/10 09:35:58;;;;;;;14.85;7.50;;;36.30;34.90;;;;;;5053567;28;20033;-75
2021/09/10 09:38:26;;;;;;;18.70;8.80;;;36.00;34.70;;;;;;5053845;28;20017;-77
2021/09/10 09:40:57;;;;;;;19.75;8.93;;;36.00;35.60;;;;;;5053900;28;20040;-75
2021/09/10 09:43:27;;;;;;;14.27;6.60;;;36.00;35.50;;;;;;5053514;28;20021;-75
2021/09/10 09:45:54;;;;;;;8.43;6.03;;;36.10;34.90;;;;;;5049219;28;20017;-76
2021/09/10 09:48:21;;;;;;;11.25;6.65;;;36.10;34.00;;;;;;5037310;28;20033;-77
2021/09/10 09:50:50;;;;;;;10.80;5.85;;;36.10;34.00;;;;;;5035573;28;20501;-76
2021/09/10 09:53:16;;;;;;;12.13;7.13;;;36.00;33.90;;;;;;5034463;28;20026;-73
2021/09/10 09:55:44;;;;;;;10.13;6.07;;;36.00;34.20;;;;;;5035116;28;20419;-76
2021/09/10 09:58:10;;;;;;;8.50;5.40;;;36.10;33.90;;;;;;5033229;28;20442;-76
2021/09/10 10:00:39;;;;;;;13.10;6.18;;;36.00;33.70;;;;;;5034707;28;20037;-76
2021/09/10 10:03:05;;;;;;;12.25;7.60;;;36.10;33.70;;;;;;5033708;28;20025;-76
2021/09/10 10:05:58;;;;;;;13.55;6.45;;;36.10;34.20;;;;;;5033699;28;20091;-75
2021/09/10 10:08:33;;;;;;;12.20;7.57;;;36.20;33.80;;;;;;5033588;28;20036;-76
2021/09/10 10:11:29;;;;;;;11.63;7.05;;;36.20;33.90;;;;;;5032278;28;20064;-76
2021/09/10 10:14:02;;;;;;;11.82;6.70;;;36.20;33.80;;;;;;5033507;28;20095;-74
2021/09/10 10:16:37;;;;;;;11.50;7.07;;;36.20;33.80;;;;;;5033346;28;20395;-76
2021/09/10 10:19:05;;;;;;;11.50;6.90;;;36.30;33.70;;;;;;5043929;28;20391;-76
2021/09/10 10:21:52;;;;;;;11.07;7.70;;;36.30;33.60;;;;;;5052033;28;20509;-76
2021/09/10 10:24:43;;;;;;;10.73;7.38;;;36.40;34.00;;;;;;5053534;28;20040;-76
2021/09/10 10:27:31;;;;;;;12.18;6.60;;;36.50;34.30;;;;;;5052971;28;20017;-76
2021/09/10 10:30:01;;;;;;;13.10;7.57;;;36.70;34.50;;;;;;5052638;28;20033;-75
2021/09/10 10:32:36;;;;;;;12.60;6.38;;;36.70;34.30;;;;;;5053192;28;20029;-76
2021/09/10 10:35:17;;;;;;;10.80;6.50;;;36.80;34.30;;;;;;5051881;28;20387;-76
2021/09/10 10:37:53;;;;;;;11.90;6.30;;;36.90;34.20;;;;;;5052881;28;20021;-76
2021/09/10 10:40:38;;;;;;;11.95;7.22;;;36.90;33.60;;;;;;5051772;28;20036;-76
2021/09/10 10:43:22;;;;;;;8.10;6.03;;;37.00;33.90;;;;;;5046725;28;20029;-75
2021/09/10 10:45:48;;;;;;;12.43;7.00;;;37.00;33.90;;;;;;5036207;28;20388;-76
2021/09/10 10:48:32;;;;;;;11.43;6.00;;;37.00;33.20;;;;;;5035712;28;20029;-78
2021/09/10 10:51:23;;;;;;;8.88;5.82;;;36.80;33.50;;;;;;5036911;28;20099;-76
2021/09/10 10:53:52;;;;;;;8.02;5.90;;;36.70;32.70;;;;;;5036692;28;20084;-76
2021/09/10 10:56:33;;;;;;;10.90;5.80;;;36.50;32.50;;;;;;5035637;28;20380;-74
2021/09/10 10:59:25;;;;;;;8.80;6.53;;;36.30;33.20;;;;;;5036871;28;20438;-75
2021/09/10 11:02:25;;;;;;;12.27;6.68;;;36.10;33.10;;;;;;5038052;28;20499;-75
2021/09/10 11:04:59;;;;;;;9.77;5.78;;;36.00;33.60;;;;;;5036722;28;20110;-75
2021/09/10 11:07:26;;;;;;;12.35;6.35;;;36.10;33.80;;;;;;5035925;28;20500;-75
2021/09/10 11:10:15;;;;;;;10.40;7.15;;;36.00;33.70;;;;;;5036678;28;20030;-75
2021/09/10 11:12:43;;;;;;;8.82;6.75;;;35.90;33.30;;;;;;5035555;28;20052;-75
2021/09/10 11:15:18;;;;;;;10.77;6.65;;;35.90;32.90;;;;;;5047576;28;20041;-75
2021/09/10 11:17:43;;;;;;;;;;;35.90;33.00;;;;;;5055655;28;20124;-75
2021/09/10 11:20:10;;;;;;;9.23;6.25;;;35.70;33.40;;;;;;5040556;28;19999;-76
2021/09/10 11:22:48;;;;;;;10.93;6.70;;;35.50;34.10;;;;;;5036407;28;20057;-76
2021/09/10 11:25:14;;;;;;;11.38;6.53;;;35.60;34.10;;;;;;5035170;28;20025;-77
2021/09/10 11:27:40;;;;;;;10.27;6.85;;;35.50;33.80;;;;;;5034952;28;20432;-75
2021/09/10 11:30:08;;;;;;;13.48;7.72;;;35.70;34.60;;;;;;5036332;28;20061;-78
2021/09/10 11:32:34;;;;;;;10.05;7.25;;;35.80;34.70;;;;;;5036658;28;20026;-75
2021/09/10 11:35:00;;;;;;;10.15;6.90;;;35.80;34.70;;;;;;5035485;28;20364;-76
2021/09/10 11:37:31;;;;;;;11.57;6.82;;;35.80;34.50;;;;;;5035436;28;20084;-76
2021/09/10 11:39:58;;;;;;;9.45;6.97;;;35.60;34.10;;;;;;5037367;28;20087;-75
2021/09/10 11:42:59;;;;;;;10.95;6.80;;;35.30;34.10;;;;;;5038166;28;20037;-77
2021/09/10 11:45:25;;;;;;;13.98;7.00;;;35.20;34.60;;;;;;5037306;28;20503;-76
2021/09/10 11:47:51;;;;;;;11.73;7.07;;;34.90;34.80;;;;;;5037094;28;20026;-76
2021/09/10 11:50:17;;;;;;;10.48;7.38;;;34.80;34.80;;;;;;5036366;28;20037;-75
2021/09/10 11:52:42;;;;;;;12.23;7.30;;;34.70;35.00;;;;;;5043124;28;20020;-76
2021/09/10 11:55:16;;;;;;;9.68;6.75;;;34.50;34.80;;;;;;5055883;28;20036;-77
2021/09/10 11:57:43;;;;;;;10.82;7.20;;;34.30;35.00;;;;;;5055694;28;20052;-75
2021/09/10 12:00:24;;;;;;;10.75;6.65;;;34.10;35.20;;;;;;5055674;28;20028;-75
2021/09/10 12:02:58;;;;;;;10.65;6.55;;;33.80;34.90;;;;;;5054250;28;20094;-76
2021/09/10 12:05:24;;;;;;;10.17;7.07;;;33.50;34.90;;;;;;5054245;28;20057;-76
2021/09/10 12:07:51;;;;;;;9.38;6.60;;;33.10;35.80;;;;;;5047329;28;20032;-76
2021/09/10 12:10:31;;;;;;;12.27;7.25;;;32.90;36.00;;;;;;5035669;28;20152;-75
2021/09/10 12:13:15;;;;;;;12.07;6.97;;;32.60;35.90;;;;;;5034078;28;20029;-75
2021/09/10 12:15:43;;;;;;;13.15;7.40;;;32.10;36.00;;;;;;5035267;28;20025;-75
2021/09/10 12:18:11;;;;;;;9.65;7.18;;;31.70;36.30;;;;;;5034022;28;20064;-77
2021/09/10 12:20:37;;;;;;;9.55;6.93;;;31.30;36.60;;;;;;5034051;28;20029;-77
2021/09/10 12:23:04;;;;;;;10.18;7.28;;;30.90;37.20;;;;;;5035248;28;20032;-75
2021/09/10 12:25:40;;;;;;;11.27;7.53;;;30.60;37.60;;;;;;5035191;28;20021;-78
2021/09/10 12:28:10;;;;;;;11.02;7.90;;;30.40;38.10;;;;;;5035016;28;20021;-76
2021/09/10 12:30:50;;;;;;;9.63;7.50;;;30.10;38.20;;;;;;5034375;28;20079;-75
2021/09/10 12:33:21;;;;;;;10.65;7.13;;;30.00;39.30;;;;;;5035313;28;20538;-77
2021/09/10 12:35:49;;;;;;;10.30;7.65;;;29.90;39.20;;;;;;5035195;28;20025;-77